Time;durP1;ratioP1;P1;durP2;ratioP2;P2;SDS_P1;SDS_P2;PMS_P1;PMS_P2;Temp;Humidity;BMP_temperature;BMP_pressure;BME280_temperature;BME280_humidity;BME280_pressure;Samples;Min_cycle;Max_cycle;Signal;HPM_P1;HPM_P2
2023/01/14 00:00:36;;;;;;;7.53;2.05;;;;;;;;;;4957140;28;20214;-72
2023/01/14 00:03:01;;;;;;;8.27;2.00;;;;;;;;;;4957215;28;20246;-72
2023/01/14 00:05:27;;;;;;;6.00;2.00;;;;;;;;;;4953984;28;20578;-73
2023/01/14 00:07:52;;;;;;;9.23;2.10;;;;;;;;;;4956633;29;20679;-72
2023/01/14 00:10:17;;;;;;;7.00;2.10;;;;;;;;;;4957168;29;20302;-72
2023/01/14 00:12:43;;;;;;;8.70;2.03;;;;;;;;;;4957148;29;20221;-72
2023/01/14 00:15:08;;;;;;;7.47;2.08;;;;;;;;;;4956330;29;20297;-71
2023/01/14 00:17:33;;;;;;;9.07;2.33;;;;;;;;;;4957544;29;20293;-72
2023/01/14 00:19:59;;;;;;;8.98;2.47;;;;;;;;;;4957601;29;20305;-72
2023/01/14 00:22:24;;;;;;;9.75;2.72;;;;;;;;;;4955985;29;20218;-72
2023/01/14 00:24:49;;;;;;;9.82;2.53;;;;;;;;;;4957352;29;20214;-72
2023/01/14 00:27:15;;;;;;;10.10;2.55;;;;;;;;;;4956642;29;20226;-72
2023/01/14 00:29:40;;;;;;;9.90;2.40;;;;;;;;;;4956343;29;20634;-72
2023/01/14 00:32:06;;;;;;;7.88;1.98;;;;;;;;;;4956702;29;20219;-71
2023/01/14 00:34:31;;;;;;;8.80;2.63;;;;;;;;;;4956310;29;20215;-72
2023/01/14 00:36:57;;;;;;;8.40;2.33;;;;;;;;;;4956819;28;20250;-72
2023/01/14 00:39:22;;;;;;;8.07;2.28;;;;;;;;;;4956556;29;20232;-72
2023/01/14 00:41:48;;;;;;;10.50;2.40;;;;;;;;;;4944641;29;20216;-72
2023/01/14 00:44:13;;;;;;;7.95;2.60;;;;;;;;;;4937436;29;20215;-71
2023/01/14 00:46:39;;;;;;;8.57;2.50;;;;;;;;;;4937796;29;20226;-72
2023/01/14 00:49:06;;;;;;;9.27;2.40;;;;;;;;;;4936456;29;20219;-72
2023/01/14 00:51:31;;;;;;;14.02;2.95;;;;;;;;;;4946412;28;20221;-72
2023/01/14 00:53:57;;;;;;;10.20;2.35;;;;;;;;;;4939649;29;20222;-72
2023/01/14 00:56:22;;;;;;;11.80;2.60;;;;;;;;;;4955834;28;20714;-72
2023/01/14 00:58:48;;;;;;;9.95;2.80;;;;;;;;;;4956592;28;20221;-72
2023/01/14 01:01:13;;;;;;;10.77;2.40;;;;;;;;;;4956218;28;20218;-72
2023/01/14 01:03:40;;;;;;;9.52;2.60;;;;;;;;;;4955884;28;20223;-72
2023/01/14 01:06:05;;;;;;;11.35;3.13;;;;;;;;;;4952497;28;20226;-72
2023/01/14 01:08:31;;;;;;;11.43;2.83;;;;;;;;;;4956288;29;20261;-72
2023/01/14 01:10:56;;;;;;;8.02;2.35;;;;;;;;;;4955916;29;20242;-72
2023/01/14 01:13:22;;;;;;;8.63;2.25;;;;;;;;;;4955871;29;20630;-72
2023/01/14 01:15:47;;;;;;;11.87;2.70;;;;;;;;;;4956340;29;20213;-72
2023/01/14 01:18:13;;;;;;;10.25;3.20;;;;;;;;;;4954974;29;20214;-72
2023/01/14 01:20:38;;;;;;;12.67;2.93;;;;;;;;;;4956389;29;20218;-72
2023/01/14 01:23:04;;;;;;;10.45;2.70;;;;;;;;;;4955555;29;20309;-72
2023/01/14 01:25:29;;;;;;;8.27;2.70;;;;;;;;;;4955504;29;20234;-72
2023/01/14 01:27:55;;;;;;;8.98;2.15;;;;;;;;;;4956165;29;20789;-72
2023/01/14 01:30:20;;;;;;;9.88;2.55;;;;;;;;;;4955579;29;20222;-72
2023/01/14 01:32:46;;;;;;;11.00;2.57;;;;;;;;;;4938259;29;20235;-72
2023/01/14 01:35:11;;;;;;;13.35;3.05;;;;;;;;;;4955349;28;20235;-72
2023/01/14 01:37:36;;;;;;;12.53;2.60;;;;;;;;;;4955749;29;20241;-72
2023/01/14 01:40:02;;;;;;;8.70;2.50;;;;;;;;;;4954761;29;20596;-71
2023/01/14 01:42:28;;;;;;;11.57;2.70;;;;;;;;;;4939163;29;20222;-72
2023/01/14 01:44:53;;;;;;;11.02;3.08;;;;;;;;;;4935876;29;20290;-72
2023/01/14 01:47:19;;;;;;;12.67;2.70;;;;;;;;;;4936159;29;20215;-72
2023/01/14 01:49:44;;;;;;;9.40;2.70;;;;;;;;;;4919632;29;20299;-72
2023/01/14 01:52:17;;;;;;;9.27;2.60;;;;;;;;;;4950534;28;20282;-71
2023/01/14 01:54:45;;;;;;;10.75;2.83;;;;;;;;;;4938489;29;20305;-72
2023/01/14 01:57:11;;;;;;;11.53;2.70;;;;;;;;;;4955119;28;20301;-69
2023/01/14 01:59:37;;;;;;;10.87;2.97;;;;;;;;;;4928884;29;20247;-69
2023/01/14 02:02:02;;;;;;;11.43;2.90;;;;;;;;;;4925134;28;20313;-68
2023/01/14 02:04:27;;;;;;;12.13;2.58;;;;;;;;;;4920052;28;20360;-69
2023/01/14 02:06:53;;;;;;;10.03;2.50;;;;;;;;;;4918151;28;20637;-69
2023/01/14 02:09:18;;;;;;;11.63;3.00;;;;;;;;;;4918344;29;20227;-70
2023/01/14 02:11:46;;;;;;;12.40;2.70;;;;;;;;;;4924158;29;20292;-69
2023/01/14 02:14:12;;;;;;;12.07;2.65;;;;;;;;;;4925398;28;20223;-69
2023/01/14 02:16:37;;;;;;;11.27;2.80;;;;;;;;;;4926703;28;20226;-69
2023/01/14 02:19:02;;;;;;;10.83;2.50;;;;;;;;;;4926040;29;20223;-68
2023/01/14 02:21:29;;;;;;;9.48;2.50;;;;;;;;;;4925733;29;20223;-69
2023/01/14 02:24:06;;;;;;;13.32;3.03;;;;;;;;;;4925387;29;20226;-69
2023/01/14 02:26:51;;;;;;;9.40;2.50;;;;;;;;;;4939240;28;20207;-69
2023/01/14 02:29:29;;;;;;;10.15;2.90;;;;;;;;;;4936207;28;20678;-69
2023/01/14 02:32:00;;;;;;;8.70;2.47;;;;;;;;;;4937468;28;20253;-69
2023/01/14 02:34:26;;;;;;;8.77;2.43;;;;;;;;;;4930407;29;20293;-69
2023/01/14 02:36:52;;;;;;;9.37;2.57;;;;;;;;;;4925982;28;20400;-69
2023/01/14 02:39:17;;;;;;;13.13;2.70;;;;;;;;;;4943099;28;20892;-69
2023/01/14 02:44:29;;;;;;;10.10;2.80;;;;;;;;;;4943398;28;20734;-69
2023/01/14 02:46:57;;;;;;;9.77;2.63;;;;;;;;;;4944859;28;20239;-69
2023/01/14 02:49:23;;;;;;;11.60;2.73;;;;;;;;;;4937297;28;20219;-69
2023/01/14 02:51:49;;;;;;;11.10;2.93;;;;;;;;;;4923468;28;20226;-69
2023/01/14 02:54:16;;;;;;;10.93;3.40;;;;;;;;;;4917857;29;20618;-69
2023/01/14 02:56:42;;;;;;;16.48;3.78;;;;;;;;;;4922686;29;20642;-69
2023/01/14 02:59:15;;;;;;;12.37;3.10;;;;;;;;;;4925969;29;20828;-69
2023/01/14 03:01:41;;;;;;;10.87;2.90;;;;;;;;;;4943185;28;20226;-69
2023/01/14 03:04:16;;;;;;;13.50;3.20;;;;;;;;;;4943510;28;20226;-68
2023/01/14 03:06:45;;;;;;;9.63;3.10;;;;;;;;;;4925374;28;20214;-69
2023/01/14 03:09:29;;;;;;;15.82;3.35;;;;;;;;;;4925441;29;20237;-69
2023/01/14 03:11:56;;;;;;;11.70;3.40;;;;;;;;;;4920727;29;20294;-69
2023/01/14 03:14:24;;;;;;;14.48;3.40;;;;;;;;;;4915235;29;20533;-69
2023/01/14 03:16:51;;;;;;;12.17;2.90;;;;;;;;;;4933923;28;20333;-69
2023/01/14 03:19:26;;;;;;;12.87;3.33;;;;;;;;;;4941531;28;20553;-68
2023/01/14 03:21:52;;;;;;;12.13;4.13;;;;;;;;;;4943199;28;20221;-69
2023/01/14 03:24:34;;;;;;;14.50;3.97;;;;;;;;;;4942300;28;20736;-69
2023/01/14 03:27:01;;;;;;;15.13;3.50;;;;;;;;;;4945683;28;20701;-69
2023/01/14 03:29:28;;;;;;;13.45;3.40;;;;;;;;;;4953622;28;20225;-69
2023/01/14 03:31:55;;;;;;;13.23;3.73;;;;;;;;;;4936403;29;20705;-69
2023/01/14 03:34:21;;;;;;;12.30;3.33;;;;;;;;;;4953594;28;20214;-69
2023/01/14 03:36:47;;;;;;;14.33;3.80;;;;;;;;;;4966398;28;20226;-69
2023/01/14 03:39:14;;;;;;;17.03;3.53;;;;;;;;;;4972305;28;20210;-69
2023/01/14 03:44:25;;;;;;;14.73;3.43;;;;;;;;;;4971174;28;20213;-68
2023/01/14 03:46:50;;;;;;;14.27;3.83;;;;;;;;;;4972248;28;20275;-69
2023/01/14 03:49:15;;;;;;;16.27;4.33;;;;;;;;;;4972847;28;20304;-69
2023/01/14 03:51:44;;;;;;;15.80;4.00;;;;;;;;;;4961155;28;20319;-69
2023/01/14 03:54:21;;;;;;;19.80;3.70;;;;;;;;;;4953525;28;20266;-69
2023/01/14 03:56:48;;;;;;;15.87;4.03;;;;;;;;;;4952716;28;20226;-69
2023/01/14 03:59:16;;;;;;;16.07;3.87;;;;;;;;;;4943792;28;20223;-69
2023/01/14 04:01:42;;;;;;;16.50;3.50;;;;;;;;;;4962551;28;20625;-69
2023/01/14 04:04:08;;;;;;;17.30;4.20;;;;;;;;;;4957396;28;20357;-68
2023/01/14 04:06:33;;;;;;;15.90;4.13;;;;;;;;;;4937058;28;20309;-69
2023/01/14 04:08:58;;;;;;;20.60;3.97;;;;;;;;;;4936671;28;20230;-69
2023/01/14 04:11:24;;;;;;;16.27;4.17;;;;;;;;;;4937058;28;20257;-69
2023/01/14 04:16:33;;;;;;;17.73;4.07;;;;;;;;;;4963061;28;20272;-69
2023/01/14 04:18:58;;;;;;;14.33;4.10;;;;;;;;;;4963613;28;20614;-70
2023/01/14 04:21:23;;;;;;;17.90;4.17;;;;;;;;;;4944871;28;20218;-69
2023/01/14 04:23:49;;;;;;;15.53;4.00;;;;;;;;;;4944526;28;20258;-69
2023/01/14 04:26:14;;;;;;;14.65;3.95;;;;;;;;;;4946508;28;20236;-69
2023/01/14 04:28:39;;;;;;;16.27;4.03;;;;;;;;;;4940700;28;20258;-69
2023/01/14 04:31:04;;;;;;;18.52;4.00;;;;;;;;;;4939645;28;20249;-69
2023/01/14 04:33:30;;;;;;;14.73;3.90;;;;;;;;;;4940597;28;20218;-69
2023/01/14 04:35:55;;;;;;;17.57;4.30;;;;;;;;;;4936653;28;20631;-69
2023/01/14 04:38:21;;;;;;;13.47;3.87;;;;;;;;;;4928128;29;20221;-69
2023/01/14 04:40:52;;;;;;;16.13;4.47;;;;;;;;;;4927799;29;20711;-69
2023/01/14 04:43:18;;;;;;;16.23;4.10;;;;;;;;;;4927803;29;20215;-69
2023/01/14 04:45:43;;;;;;;17.02;3.97;;;;;;;;;;4928631;29;20225;-69
2023/01/14 04:48:08;;;;;;;17.60;3.87;;;;;;;;;;4927217;29;20227;-69
2023/01/14 04:50:34;;;;;;;16.97;4.17;;;;;;;;;;4923378;29;20219;-69
2023/01/14 04:53:06;;;;;;;16.10;3.97;;;;;;;;;;4919877;29;20226;-69
2023/01/14 04:55:33;;;;;;;13.73;3.63;;;;;;;;;;4936589;28;20517;-69
2023/01/14 04:57:58;;;;;;;20.60;4.40;;;;;;;;;;4946868;28;20223;-69
2023/01/14 05:00:24;;;;;;;21.97;4.13;;;;;;;;;;4955512;28;20221;-68
2023/01/14 05:02:49;;;;;;;14.73;3.53;;;;;;;;;;4956041;28;20222;-69
2023/01/14 05:05:15;;;;;;;17.55;4.18;;;;;;;;;;4959217;28;20269;-68
2023/01/14 05:07:40;;;;;;;17.90;4.37;;;;;;;;;;4951674;28;20247;-69
2023/01/14 05:10:06;;;;;;;16.53;3.47;;;;;;;;;;4936325;29;20211;-68
2023/01/14 05:12:31;;;;;;;14.17;3.73;;;;;;;;;;4937429;29;20211;-69
2023/01/14 05:14:56;;;;;;;15.65;3.70;;;;;;;;;;4937146;29;20591;-69
2023/01/14 05:17:21;;;;;;;15.57;3.90;;;;;;;;;;4936210;29;20266;-69
2023/01/14 05:19:47;;;;;;;17.70;3.90;;;;;;;;;;4937216;29;20214;-69
2023/01/14 05:22:12;;;;;;;12.90;3.53;;;;;;;;;;4936647;29;20243;-69
2023/01/14 05:24:37;;;;;;;16.87;3.80;;;;;;;;;;4936257;29;20211;-69
2023/01/14 05:27:03;;;;;;;16.60;4.07;;;;;;;;;;4936645;29;20218;-69
2023/01/14 05:29:28;;;;;;;14.40;3.57;;;;;;;;;;4937084;29;20207;-69
2023/01/14 05:31:53;;;;;;;15.53;3.60;;;;;;;;;;4936296;29;20619;-69
2023/01/14 05:34:18;;;;;;;17.17;3.70;;;;;;;;;;4936433;29;20303;-69
2023/01/14 05:36:44;;;;;;;13.47;3.63;;;;;;;;;;4936095;29;20235;-69
2023/01/14 05:39:09;;;;;;;14.07;3.40;;;;;;;;;;4935549;29;20353;-69
2023/01/14 05:41:35;;;;;;;14.13;3.72;;;;;;;;;;4946907;28;20238;-69
2023/01/14 05:46:45;;;;;;;15.53;4.17;;;;;;;;;;4956174;28;20252;-69
2023/01/14 05:49:10;;;;;;;14.57;3.47;;;;;;;;;;4955435;28;20226;-69
2023/01/14 05:51:35;;;;;;;16.07;3.90;;;;;;;;;;4954656;28;20235;-69
2023/01/14 05:54:01;;;;;;;12.75;3.40;;;;;;;;;;4955319;28;20225;-67
2023/01/14 05:56:26;;;;;;;12.70;3.60;;;;;;;;;;4955879;28;20737;-69
2023/01/14 05:58:51;;;;;;;13.93;3.30;;;;;;;;;;4952475;28;20595;-69
2023/01/14 06:06:47;;;;;;;11.80;3.23;;;;;;;;;;4926743;29;20238;-68
2023/01/14 06:09:13;;;;;;;15.23;3.77;;;;;;;;;;4926630;29;20223;-68
2023/01/14 06:11:40;;;;;;;13.30;3.07;;;;;;;;;;4927096;29;20226;-68
2023/01/14 06:14:05;;;;;;;11.25;3.00;;;;;;;;;;4925134;29;20265;-68
2023/01/14 06:16:38;;;;;;;13.57;3.13;;;;;;;;;;4918987;29;20314;-68
2023/01/14 06:19:04;;;;;;;12.30;3.10;;;;;;;;;;4918044;29;20218;-68
2023/01/14 06:21:29;;;;;;;11.00;2.90;;;;;;;;;;4919538;29;20620;-68
2023/01/14 06:23:55;;;;;;;14.00;3.10;;;;;;;;;;4945191;28;20215;-69
2023/01/14 06:26:21;;;;;;;13.43;3.00;;;;;;;;;;4944115;28;20710;-68
2023/01/14 06:28:46;;;;;;;12.67;2.97;;;;;;;;;;4945563;28;20277;-69
2023/01/14 06:31:12;;;;;;;13.23;3.33;;;;;;;;;;4945020;28;20703;-68
2023/01/14 06:33:38;;;;;;;12.27;2.50;;;;;;;;;;4944836;28;20789;-69
2023/01/14 06:36:03;;;;;;;12.90;2.80;;;;;;;;;;4931202;28;20239;-68
2023/01/14 06:38:28;;;;;;;13.83;3.60;;;;;;;;;;4918482;29;20785;-69
2023/01/14 06:40:57;;;;;;;12.20;3.23;;;;;;;;;;4917627;29;20263;-68
2023/01/14 06:43:22;;;;;;;12.63;2.70;;;;;;;;;;4936129;28;20449;-68
2023/01/14 06:45:51;;;;;;;15.90;3.27;;;;;;;;;;4928643;29;20227;-68
2023/01/14 06:48:16;;;;;;;11.20;2.73;;;;;;;;;;4943128;28;20282;-68
2023/01/14 06:50:41;;;;;;;12.70;2.97;;;;;;;;;;4941205;28;20219;-69
2023/01/14 06:53:07;;;;;;;11.93;2.83;;;;;;;;;;4925981;29;20309;-68
2023/01/14 06:55:32;;;;;;;11.77;3.13;;;;;;;;;;4925826;29;20678;-69
2023/01/14 06:57:57;;;;;;;11.97;2.80;;;;;;;;;;4926426;28;20222;-69
2023/01/14 07:00:23;;;;;;;14.27;3.13;;;;;;;;;;4922494;28;20722;-68
2023/01/14 07:02:48;;;;;;;12.17;3.57;;;;;;;;;;4918373;29;20227;-69
2023/01/14 07:05:14;;;;;;;13.77;3.23;;;;;;;;;;4917542;29;20242;-68
2023/01/14 07:07:39;;;;;;;11.27;2.60;;;;;;;;;;4922573;29;20235;-68
2023/01/14 07:10:05;;;;;;;12.87;2.60;;;;;;;;;;4925110;29;20215;-67
2023/01/14 07:12:30;;;;;;;11.47;2.77;;;;;;;;;;4925737;29;20223;-68
2023/01/14 07:14:55;;;;;;;10.57;2.70;;;;;;;;;;4926072;29;20687;-68
2023/01/14 07:17:20;;;;;;;13.73;3.10;;;;;;;;;;4924663;29;20219;-68
2023/01/14 07:19:46;;;;;;;14.17;3.50;;;;;;;;;;4926382;29;20215;-69
2023/01/14 07:22:11;;;;;;;17.43;3.33;;;;;;;;;;4923927;29;20309;-69
2023/01/14 07:24:37;;;;;;;10.60;2.90;;;;;;;;;;4917385;29;20227;-69
2023/01/14 07:27:03;;;;;;;11.57;2.67;;;;;;;;;;4917125;29;20226;-66
2023/01/14 07:29:28;;;;;;;14.88;3.28;;;;;;;;;;4918207;29;20438;-65
2023/01/14 07:31:54;;;;;;;10.38;3.30;;;;;;;;;;4926971;28;20561;-68
2023/01/14 07:34:19;;;;;;;12.27;2.93;;;;;;;;;;4925684;29;20359;-69
2023/01/14 07:36:44;;;;;;;13.43;3.13;;;;;;;;;;4925641;28;20222;-67
2023/01/14 07:39:10;;;;;;;11.37;2.97;;;;;;;;;;4926146;29;20342;-68
2023/01/14 07:41:35;;;;;;;12.48;2.85;;;;;;;;;;4926742;29;20222;-68
2023/01/14 07:44:02;;;;;;;10.93;2.77;;;;;;;;;;4925207;29;20699;-67
2023/01/14 07:46:27;;;;;;;12.37;3.30;;;;;;;;;;4920075;29;20294;-68
2023/01/14 07:48:53;;;;;;;12.20;2.90;;;;;;;;;;4918350;29;20346;-68
2023/01/14 07:51:20;;;;;;;13.40;3.30;;;;;;;;;;4917384;29;20670;-67
2023/01/14 07:53:46;;;;;;;12.00;3.00;;;;;;;;;;4925609;29;20211;-68
2023/01/14 07:56:12;;;;;;;12.27;3.30;;;;;;;;;;4925576;29;20215;-67
2023/01/14 07:58:37;;;;;;;12.23;3.38;;;;;;;;;;4927326;28;20294;-67
2023/01/14 08:01:09;;;;;;;12.20;2.93;;;;;;;;;;4938043;28;20213;-67
2023/01/14 08:03:34;;;;;;;10.63;3.00;;;;;;;;;;4955111;28;20244;-68
2023/01/14 08:06:00;;;;;;;12.57;3.13;;;;;;;;;;4956612;28;20242;-69
2023/01/14 08:08:25;;;;;;;13.17;3.43;;;;;;;;;;4956518;28;20222;-66
2023/01/14 08:10:51;;;;;;;10.53;3.00;;;;;;;;;;4957322;28;20270;-66
2023/01/14 08:13:16;;;;;;;11.10;3.10;;;;;;;;;;4955883;28;20206;-66
2023/01/14 08:15:41;;;;;;;11.10;2.90;;;;;;;;;;4957122;28;20213;-66
2023/01/14 08:18:07;;;;;;;11.60;3.03;;;;;;;;;;4956697;28;20583;-66
2023/01/14 08:20:32;;;;;;;9.40;2.80;;;;;;;;;;4956178;28;20243;-66
2023/01/14 08:22:58;;;;;;;9.13;2.83;;;;;;;;;;4956796;28;20215;-66
2023/01/14 08:25:23;;;;;;;10.02;3.40;;;;;;;;;;4956306;28;20214;-66
2023/01/14 08:27:49;;;;;;;10.07;2.90;;;;;;;;;;4955916;28;20215;-66
2023/01/14 08:30:14;;;;;;;8.63;2.73;;;;;;;;;;4956275;28;20215;-66
2023/01/14 08:32:39;;;;;;;11.43;2.77;;;;;;;;;;4956488;28;20250;-66
2023/01/14 08:35:05;;;;;;;10.67;3.23;;;;;;;;;;4955268;28;20241;-66
2023/01/14 08:37:31;;;;;;;10.37;2.87;;;;;;;;;;4956656;28;20287;-66
2023/01/14 08:39:56;;;;;;;9.20;2.63;;;;;;;;;;4955553;28;20199;-66
2023/01/14 08:42:22;;;;;;;7.37;2.57;;;;;;;;;;4956107;28;20301;-66
2023/01/14 08:44:47;;;;;;;11.27;2.87;;;;;;;;;;4956500;28;20289;-66
2023/01/14 08:47:12;;;;;;;8.02;2.65;;;;;;;;;;4951713;28;20224;-66
2023/01/14 08:49:37;;;;;;;9.67;2.40;;;;;;;;;;4934181;28;20259;-66
2023/01/14 08:52:03;;;;;;;7.33;2.10;;;;;;;;;;4940640;28;20289;-65
2023/01/14 08:54:28;;;;;;;10.00;2.20;;;;;;;;;;4949316;28;20804;-66
2023/01/14 08:56:55;;;;;;;7.47;2.35;;;;;;;;;;4950151;29;20298;-66
2023/01/14 08:59:20;;;;;;;8.10;2.27;;;;;;;;;;4936967;28;20247;-66
2023/01/14 09:01:46;;;;;;;6.87;2.00;;;;;;;;;;4931438;29;20729;-65
2023/01/14 09:04:11;;;;;;;8.27;2.10;;;;;;;;;;4931301;29;20265;-66
2023/01/14 09:17:04;;;;;;;7.47;2.00;;;;;;;;;;4933747;29;20744;-66
2023/01/14 09:17:36;;;;;;;8.40;2.30;;;;;;;;;;4948992;28;20734;-66
2023/01/14 09:20:02;;;;;;;7.67;2.37;;;;;;;;;;4949039;28;20300;-66
2023/01/14 09:22:28;;;;;;;6.80;2.00;;;;;;;;;;4947890;28;20206;-67
2023/01/14 09:24:53;;;;;;;6.80;1.75;;;;;;;;;;4949734;28;20211;-67
2023/01/14 09:27:19;;;;;;;7.30;1.90;;;;;;;;;;4933617;28;20222;-67
2023/01/14 09:29:44;;;;;;;7.15;1.80;;;;;;;;;;4930990;29;20215;-67
2023/01/14 09:32:10;;;;;;;6.20;2.10;;;;;;;;;;4930816;29;20226;-67
2023/01/14 09:34:38;;;;;;;8.67;2.00;;;;;;;;;;4931271;29;20251;-67
2023/01/14 09:37:03;;;;;;;5.20;1.77;;;;;;;;;;4929668;29;20933;-67
2023/01/14 09:39:28;;;;;;;6.88;2.30;;;;;;;;;;4931276;29;20306;-67
2023/01/14 09:41:55;;;;;;;6.27;2.10;;;;;;;;;;4930734;29;20215;-67
2023/01/14 09:44:20;;;;;;;5.47;1.83;;;;;;;;;;4930036;29;20524;-67
2023/01/14 09:46:45;;;;;;;6.40;2.10;;;;;;;;;;4930677;29;20285;-67
2023/01/14 09:49:11;;;;;;;7.67;2.00;;;;;;;;;;4930625;29;20242;-67
2023/01/14 09:51:53;;;;;;;4.55;1.38;;;;;;;;;;4930374;29;20591;-67
2023/01/14 09:54:22;;;;;;;5.13;1.43;;;;;;;;;;4929975;29;20211;-67
2023/01/14 09:56:57;;;;;;;6.33;1.50;;;;;;;;;;4928959;29;20706;-67
2023/01/14 09:59:29;;;;;;;4.82;1.60;;;;;;;;;;4929882;29;20214;-67
2023/01/14 10:02:02;;;;;;;4.37;1.23;;;;;;;;;;4930475;29;20207;-67
2023/01/14 10:04:36;;;;;;;3.33;1.20;;;;;;;;;;4933438;29;20207;-67
2023/01/14 10:07:01;;;;;;;3.90;1.20;;;;;;;;;;4929344;28;20282;-65
2023/01/14 10:09:27;;;;;;;4.87;1.10;;;;;;;;;;4929097;28;20769;-65
2023/01/14 10:11:53;;;;;;;4.23;1.30;;;;;;;;;;4930117;28;20306;-65
2023/01/14 10:14:21;;;;;;;4.23;1.27;;;;;;;;;;4930329;28;20302;-65
2023/01/14 10:16:48;;;;;;;4.13;1.30;;;;;;;;;;4929345;29;20310;-65
2023/01/14 10:19:15;;;;;;;4.03;1.37;;;;;;;;;;4927865;29;20278;-65
2023/01/14 10:21:43;;;;;;;4.33;1.10;;;;;;;;;;4929745;29;20223;-65
2023/01/14 10:24:11;;;;;;;3.27;1.07;;;;;;;;;;4929646;29;20790;-65
2023/01/14 10:26:36;;;;;;;5.23;1.00;;;;;;;;;;4928399;29;20219;-65
2023/01/14 10:29:03;;;;;;;4.47;1.20;;;;;;;;;;4928482;29;20233;-65
2023/01/14 10:31:29;;;;;;;5.07;1.00;;;;;;;;;;4929657;29;20375;-65
2023/01/14 10:33:55;;;;;;;3.93;1.10;;;;;;;;;;4929701;29;20312;-65
2023/01/14 10:36:22;;;;;;;5.33;1.00;;;;;;;;;;4929373;29;20299;-65
2023/01/14 10:38:47;;;;;;;4.83;1.00;;;;;;;;;;4928871;29;20234;-65
2023/01/14 10:41:12;;;;;;;4.43;1.33;;;;;;;;;;4928554;29;20223;-65
2023/01/14 10:43:38;;;;;;;3.50;1.17;;;;;;;;;;4930120;29;20227;-65
2023/01/14 10:46:05;;;;;;;3.80;1.20;;;;;;;;;;4929649;28;20215;-65
2023/01/14 10:48:50;;;;;;;2.90;0.90;;;;;;;;;;4931120;28;20246;-65
2023/01/14 10:51:32;;;;;;;4.30;1.47;;;;;;;;;;4929194;29;21005;-65
2023/01/14 10:54:08;;;;;;;4.70;1.08;;;;;;;;;;4929331;29;20303;-65
2023/01/14 10:56:33;;;;;;;2.50;0.90;;;;;;;;;;4936830;28;20305;-66
2023/01/14 10:58:58;;;;;;;3.93;1.30;;;;;;;;;;4943304;28;20638;-66
2023/01/14 11:01:23;;;;;;;3.93;1.10;;;;;;;;;;4927228;29;20217;-65
2023/01/14 11:03:49;;;;;;;2.50;0.70;;;;;;;;;;4928664;29;20215;-65
2023/01/14 11:06:15;;;;;;;3.63;1.10;;;;;;;;;;4934538;28;20678;-65
2023/01/14 11:08:46;;;;;;;3.97;0.80;;;;;;;;;;4946157;28;20804;-65
2023/01/14 11:11:32;;;;;;;5.07;1.50;;;;;;;;;;4947743;28;20265;-65
2023/01/14 11:13:59;;;;;;;3.60;1.00;;;;;;;;;;4930127;28;20282;-65
2023/01/14 11:16:25;;;;;;;3.00;0.90;;;;;;;;;;4927335;29;20671;-65
2023/01/14 11:18:53;;;;;;;2.33;1.00;;;;;;;;;;4929574;29;20222;-65
2023/01/14 11:21:20;;;;;;;3.78;1.10;;;;;;;;;;4929192;29;20270;-65
2023/01/14 11:23:57;;;;;;;4.80;1.20;;;;;;;;;;4927281;29;20219;-65
2023/01/14 11:26:24;;;;;;;3.53;1.10;;;;;;;;;;4927804;29;20207;-65
2023/01/14 11:28:50;;;;;;;3.63;1.00;;;;;;;;;;4928361;29;20235;-65
2023/01/14 11:31:17;;;;;;;4.28;1.00;;;;;;;;;;4931259;28;20221;-65
2023/01/14 11:33:48;;;;;;;3.10;0.90;;;;;;;;;;4946724;28;20238;-65
2023/01/14 11:36:19;;;;;;;3.80;1.20;;;;;;;;;;4952580;28;20330;-65
2023/01/14 11:38:44;;;;;;;2.27;1.00;;;;;;;;;;4937324;28;20272;-65
2023/01/14 11:41:28;;;;;;;3.65;1.00;;;;;;;;;;4947273;28;20215;-65
2023/01/14 11:43:56;;;;;;;4.75;1.23;;;;;;;;;;4943875;28;20708;-65
2023/01/14 11:46:21;;;;;;;3.25;0.85;;;;;;;;;;4935048;29;20713;-66
2023/01/14 11:48:58;;;;;;;3.30;1.00;;;;;;;;;;4935723;28;20266;-65
2023/01/14 11:51:25;;;;;;;4.63;1.10;;;;;;;;;;4940110;28;21030;-65
2023/01/14 11:53:51;;;;;;;2.30;0.80;;;;;;;;;;4954012;28;20214;-64
2023/01/14 11:56:20;;;;;;;3.87;1.07;;;;;;;;;;4951968;28;20698;-65
2023/01/14 11:58:45;;;;;;;3.15;1.20;;;;;;;;;;4953256;28;20702;-65
2023/01/14 12:01:19;;;;;;;2.60;0.90;;;;;;;;;;4951794;28;20302;-65
2023/01/14 12:03:48;;;;;;;1.27;0.80;;;;;;;;;;4952543;28;20637;-64
2023/01/14 12:06:22;;;;;;;3.58;0.70;;;;;;;;;;4939957;28;20218;-65
2023/01/14 12:08:49;;;;;;;2.30;0.68;;;;;;;;;;4934530;29;20238;-64
2023/01/14 12:11:17;;;;;;;3.17;0.60;;;;;;;;;;4952100;28;20225;-64
2023/01/14 12:16:49;;;;;;;1.13;0.50;;;;;;;;;;4952879;28;20258;-64
2023/01/14 12:19:17;;;;;;;1.73;0.50;;;;;;;;;;4953066;28;20273;-64
2023/01/14 12:21:49;;;;;;;1.52;0.60;;;;;;;;;;4953862;28;20214;-64
2023/01/14 12:24:20;;;;;;;1.07;0.50;;;;;;;;;;4949214;28;20225;-65
2023/01/14 12:26:46;;;;;;;1.23;0.70;;;;;;;;;;4933428;29;20237;-64
2023/01/14 12:29:13;;;;;;;2.30;0.60;;;;;;;;;;4933082;29;20222;-64
2023/01/14 12:31:40;;;;;;;1.02;0.50;;;;;;;;;;4936834;29;20211;-64
2023/01/14 12:34:12;;;;;;;1.45;0.77;;;;;;;;;;4933229;29;20230;-64
2023/01/14 12:36:38;;;;;;;0.70;0.43;;;;;;;;;;4935269;29;20245;-64
2023/01/14 12:47:27;;;;;;;2.47;0.47;;;;;;;;;;4947227;28;20279;-64
2023/01/14 12:49:53;;;;;;;1.00;0.40;;;;;;;;;;4945696;28;20690;-64
2023/01/14 12:52:23;;;;;;;0.77;0.47;;;;;;;;;;4931349;29;20219;-65
2023/01/14 12:54:48;;;;;;;0.47;0.30;;;;;;;;;;4931476;29;20761;-65
2023/01/14 12:57:17;;;;;;;1.27;0.40;;;;;;;;;;4938562;28;20226;-65
2023/01/14 12:59:43;;;;;;;0.63;0.40;;;;;;;;;;4930530;29;20231;-64
2023/01/14 13:02:16;;;;;;;0.50;0.35;;;;;;;;;;4929268;29;20554;-64
2023/01/14 13:04:46;;;;;;;1.88;0.30;;;;;;;;;;4930129;29;20227;-64
2023/01/14 13:07:16;;;;;;;0.77;0.40;;;;;;;;;;4930873;29;20219;-64
2023/01/14 13:09:43;;;;;;;0.98;0.50;;;;;;;;;;4930731;29;20233;-64
2023/01/14 13:12:14;;;;;;;0.63;0.30;;;;;;;;;;4930801;28;20314;-64
2023/01/14 13:14:39;;;;;;;0.95;0.40;;;;;;;;;;4929955;29;20218;-68
2023/01/14 13:17:05;;;;;;;0.98;0.38;;;;;;;;;;4929464;29;20234;-67
2023/01/14 13:19:32;;;;;;;2.50;0.50;;;;;;;;;;4931368;29;20226;-67
2023/01/14 13:21:58;;;;;;;0.75;0.50;;;;;;;;;;4930452;29;20219;-68
2023/01/14 13:24:46;;;;;;;0.90;0.43;;;;;;;;;;4930575;29;20210;-67
2023/01/14 13:27:29;;;;;;;0.40;0.30;;;;;;;;;;4930458;29;20230;-67
2023/01/14 13:30:13;;;;;;;1.63;0.40;;;;;;;;;;4930718;29;20233;-67
2023/01/14 13:32:57;;;;;;;0.70;0.40;;;;;;;;;;4930901;29;20223;-67
2023/01/14 13:35:23;;;;;;;0.80;0.50;;;;;;;;;;4945115;28;20930;-66
2023/01/14 13:37:49;;;;;;;0.75;0.40;;;;;;;;;;4949772;28;20206;-67
2023/01/14 13:40:19;;;;;;;0.60;0.30;;;;;;;;;;4931578;28;20219;-67
2023/01/14 13:42:44;;;;;;;0.88;0.43;;;;;;;;;;4933604;29;20677;-67
2023/01/14 13:45:18;;;;;;;1.58;0.45;;;;;;;;;;4949366;28;20214;-67
2023/01/14 13:47:43;;;;;;;0.80;0.50;;;;;;;;;;4947047;28;20238;-67
2023/01/14 13:50:18;;;;;;;0.73;0.37;;;;;;;;;;4928241;29;20442;-66
2023/01/14 13:52:46;;;;;;;0.40;0.30;;;;;;;;;;4942043;28;20689;-66
2023/01/14 13:55:19;;;;;;;2.05;0.65;;;;;;;;;;4931132;29;20222;-66
2023/01/14 13:57:49;;;;;;;1.38;0.40;;;;;;;;;;4943174;28;20301;-66
2023/01/14 14:00:17;;;;;;;0.60;0.30;;;;;;;;;;4947130;28;20273;-67
2023/01/14 14:02:46;;;;;;;0.65;0.40;;;;;;;;;;4948901;28;20215;-67
2023/01/14 14:05:14;;;;;;;0.70;0.30;;;;;;;;;;4947705;28;20841;-66
2023/01/14 14:07:43;;;;;;;1.00;0.40;;;;;;;;;;4930636;29;20242;-65
2023/01/14 14:10:09;;;;;;;0.55;0.30;;;;;;;;;;4930026;29;20227;-66
2023/01/14 14:15:23;;;;;;;0.90;0.40;;;;;;;;;;4929854;29;20535;-65
2023/01/14 14:17:50;;;;;;;1.25;0.40;;;;;;;;;;4928155;29;20230;-65
2023/01/14 14:20:16;;;;;;;0.70;0.40;;;;;;;;;;4928976;29;20274;-65
2023/01/14 14:22:46;;;;;;;0.68;0.40;;;;;;;;;;4930732;29;20278;-65
2023/01/14 14:25:20;;;;;;;0.38;0.30;;;;;;;;;;4927728;29;20215;-65
2023/01/14 14:27:47;;;;;;;1.10;0.50;;;;;;;;;;4930073;29;20261;-66
2023/01/14 14:30:12;;;;;;;1.65;0.50;;;;;;;;;;4929602;29;20233;-65
2023/01/14 14:32:39;;;;;;;1.35;0.50;;;;;;;;;;4929943;29;20223;-66
2023/01/14 14:35:14;;;;;;;0.68;0.40;;;;;;;;;;4928081;29;20222;-65
2023/01/14 14:37:39;;;;;;;2.15;0.70;;;;;;;;;;4930318;29;20726;-66
2023/01/14 14:40:06;;;;;;;0.43;0.30;;;;;;;;;;4927388;29;20215;-66
2023/01/14 14:42:32;;;;;;;0.65;0.30;;;;;;;;;;4930196;29;20266;-66
2023/01/14 14:44:58;;;;;;;1.73;0.50;;;;;;;;;;4929620;29;20227;-65
2023/01/14 14:47:24;;;;;;;0.47;0.40;;;;;;;;;;4929223;28;20219;-65
2023/01/14 14:49:50;;;;;;;0.43;0.40;;;;;;;;;;4929770;29;20222;-66
2023/01/14 14:52:18;;;;;;;0.80;0.60;;;;;;;;;;4928469;29;20227;-66
2023/01/14 14:54:44;;;;;;;0.65;0.50;;;;;;;;;;4928920;29;20687;-65
2023/01/14 14:57:17;;;;;;;0.70;0.50;;;;;;;;;;4935539;28;20226;-65
2023/01/14 14:59:42;;;;;;;0.93;0.40;;;;;;;;;;4928215;29;20576;-65
2023/01/14 15:02:15;;;;;;;1.10;0.60;;;;;;;;;;4929245;29;20771;-65
2023/01/14 15:04:41;;;;;;;0.75;0.60;;;;;;;;;;4929975;29;20230;-65
2023/01/14 15:07:06;;;;;;;0.70;0.40;;;;;;;;;;4927456;29;20218;-65
2023/01/14 15:09:31;;;;;;;0.57;0.30;;;;;;;;;;4928481;29;20219;-65
2023/01/14 15:11:57;;;;;;;0.55;0.40;;;;;;;;;;4929877;28;20246;-65
2023/01/14 15:14:24;;;;;;;0.82;0.40;;;;;;;;;;4928888;28;20573;-65